Time;durP1;ratioP1;P1;durP2;ratioP2;P2;SDS_P1;SDS_P2;PMS_P1;PMS_P2;Temp;Humidity;BMP_temperature;BMP_pressure;BME280_temperature;BME280_humidity;BME280_pressure;Samples;Min_cycle;Max_cycle;Signal;HPM_P1;HPM_P2
2024/01/20 00:00:49;;;;;;;9.82;3.67;;;;;;;22.95;37.45;100401.97;2082460;28;20034;-58
2024/01/20 00:01:52;;;;;;;7.70;3.60;;;;;;;22.95;37.29;100404.72;2081940;28;20026;-58
2024/01/20 00:02:54;;;;;;;5.97;3.40;;;;;;;22.94;37.32;100409.41;2082460;28;20022;-58
2024/01/20 00:03:56;;;;;;;6.38;2.90;;;;;;;22.94;37.30;100408.63;2098853;28;20838;-58
2024/01/20 00:04:58;;;;;;;6.43;2.85;;;;;;;22.94;37.35;100408.63;2098921;28;20041;-58
2024/01/20 00:06:00;;;;;;;6.93;2.75;;;;;;;22.94;37.28;100397.66;2090922;28;20974;-58
2024/01/20 00:07:03;;;;;;;7.22;3.30;;;;;;;22.94;37.31;100394.91;2098915;28;20900;-57
2024/01/20 00:08:05;;;;;;;10.10;3.22;;;;;;;22.94;37.23;100392.19;2090762;28;21001;-58
2024/01/20 00:09:08;;;;;;;11.13;3.72;;;;;;;22.93;36.88;100390.56;2090680;28;21107;-59
2024/01/20 00:10:11;;;;;;;9.50;3.65;;;;;;;22.90;36.65;100392.88;2098905;28;20130;-58
2024/01/20 00:11:13;;;;;;;7.75;3.47;;;;;;;22.88;36.48;100389.69;2090458;28;20136;-59
2024/01/20 00:12:15;;;;;;;11.80;3.92;;;;;;;22.85;36.38;100381.41;2083136;28;20038;-58
2024/01/20 00:13:17;;;;;;;9.07;3.40;;;;;;;22.81;36.03;100381.38;2098839;28;20190;-58
2024/01/20 00:14:19;;;;;;;8.73;3.20;;;;;;;22.78;35.98;100384.84;2099234;28;20143;-58
2024/01/20 00:15:20;;;;;;;14.20;3.30;;;;;;;22.74;35.84;100386.72;2090455;28;20136;-58
2024/01/20 00:16:21;;;;;;;13.88;3.58;;;;;;;22.71;35.63;100378.44;2090686;28;20865;-58
2024/01/20 00:17:25;;;;;;;7.47;3.05;;;;;;;22.66;35.57;100379.53;2081659;28;20145;-59
2024/01/20 00:18:27;;;;;;;13.63;3.13;;;;;;;22.62;35.44;100370.47;2082281;28;20983;-58
2024/01/20 00:19:30;;;;;;;6.75;2.90;;;;;;;22.58;35.39;100383.31;2090691;28;20033;-58
2024/01/20 00:20:32;;;;;;;6.63;3.00;;;;;;;22.53;35.18;100381.66;2098830;28;20880;-58
2024/01/20 00:21:33;;;;;;;6.50;2.60;;;;;;;22.48;35.34;100381.16;2090322;28;20195;-58
2024/01/20 00:22:35;;;;;;;8.65;2.83;;;;;;;22.42;35.25;100373.25;2074250;28;20025;-58
2024/01/20 00:23:39;;;;;;;6.35;2.97;;;;;;;22.38;35.17;100372.41;2082135;28;20030;-58
2024/01/20 00:24:41;;;;;;;6.68;2.90;;;;;;;22.33;35.09;100369.94;2099147;28;20153;-58
2024/01/20 00:25:42;;;;;;;6.50;2.75;;;;;;;22.29;34.97;100380.03;2082100;28;20061;-58
2024/01/20 00:26:44;;;;;;;7.38;2.78;;;;;;;22.24;35.00;100366.63;2074655;28;20023;-57
2024/01/20 00:27:49;;;;;;;6.55;2.70;;;;;;;22.20;34.99;100371.25;2099329;28;20032;-58
2024/01/20 00:28:51;;;;;;;6.30;2.85;;;;;;;22.14;34.91;100370.72;2090344;28;20076;-58
2024/01/20 00:29:52;;;;;;;6.13;3.28;;;;;;;22.10;34.98;100371.78;2090836;28;21361;-58
2024/01/20 00:30:54;;;;;;;5.22;2.92;;;;;;;22.07;35.07;100372.50;2098676;28;20144;-58
2024/01/20 00:31:56;;;;;;;5.97;2.53;;;;;;;22.02;34.87;100370.88;2090109;28;20148;-57
2024/01/20 00:32:58;;;;;;;4.45;2.10;;;;;;;21.98;34.88;100364.53;2090519;28;20021;-58
2024/01/20 00:34:00;;;;;;;6.72;2.28;;;;;;;21.94;34.83;100369.94;2090452;28;20143;-57
2024/01/20 00:35:03;;;;;;;5.35;2.42;;;;;;;21.89;34.71;100372.94;2099054;28;20875;-58
2024/01/20 00:36:06;;;;;;;5.10;2.25;;;;;;;21.85;34.75;100376.78;2099254;28;20023;-58
2024/01/20 00:37:08;;;;;;;4.63;2.00;;;;;;;21.81;34.67;100370.41;2107054;28;20016;-58
2024/01/20 00:38:11;;;;;;;4.18;2.00;;;;;;;21.77;35.02;100366.81;2098940;28;20052;-58
2024/01/20 00:39:14;;;;;;;4.82;2.10;;;;;;;21.72;34.72;100365.16;2090706;28;20151;-58
2024/01/20 00:40:15;;;;;;;5.10;2.25;;;;;;;21.67;34.85;100368.97;2098891;28;20127;-58
2024/01/20 00:41:18;;;;;;;5.57;2.47;;;;;;;21.64;34.75;100360.69;2099123;28;20128;-58
2024/01/20 00:42:18;;;;;;;4.60;2.15;;;;;;;21.60;34.76;100357.09;2090576;28;20132;-58
2024/01/20 00:43:23;;;;;;;4.72;2.00;;;;;;;21.57;34.73;100360.53;2082236;28;20033;-58
2024/01/20 00:44:25;;;;;;;3.97;1.90;;;;;;;21.53;34.77;100360.44;2066528;28;20888;-58
2024/01/20 00:45:27;;;;;;;3.80;1.67;;;;;;;21.48;34.69;100358.78;2074754;28;21260;-59
2024/01/20 00:46:29;;;;;;;4.80;1.88;;;;;;;21.46;34.88;100372.03;2090396;28;20026;-58
2024/01/20 00:47:31;;;;;;;5.45;1.95;;;;;;;21.42;34.80;100362.94;2082538;28;20105;-58
2024/01/20 00:48:33;;;;;;;3.58;1.95;;;;;;;21.39;34.77;100363.66;2074579;28;20032;-58
2024/01/20 00:49:35;;;;;;;6.28;1.92;;;;;;;21.36;34.94;100364.38;2074284;28;20113;-58
2024/01/20 00:50:39;;;;;;;3.45;1.60;;;;;;;21.32;34.83;100355.28;2090510;28;20037;-58
2024/01/20 00:51:41;;;;;;;3.30;1.63;;;;;;;21.30;34.82;100363.03;2090364;28;20066;-58
2024/01/20 00:52:42;;;;;;;2.65;1.60;;;;;;;21.27;34.92;100358.28;2074200;28;20141;-58
2024/01/20 00:53:44;;;;;;;3.67;1.90;;;;;;;21.25;34.81;100355.13;2082491;28;20145;-58
2024/01/20 00:54:46;;;;;;;2.85;1.50;;;;;;;21.22;34.83;100347.63;2090493;28;20950;-58
2024/01/20 00:55:48;;;;;;;2.72;1.40;;;;;;;21.18;34.93;100361.19;2090694;28;20037;-58
2024/01/20 00:56:50;;;;;;;3.00;1.70;;;;;;;21.15;34.81;100353.69;2090042;28;20108;-58
2024/01/20 00:57:52;;;;;;;4.80;2.03;;;;;;;21.13;34.92;100352.47;2082261;28;20033;-58
2024/01/20 00:58:53;;;;;;;2.78;1.60;;;;;;;21.11;34.89;100352.03;2081939;28;20026;-58
2024/01/20 00:59:56;;;;;;;3.45;1.70;;;;;;;21.09;34.94;100346.13;2082678;28;20030;-58
2024/01/20 01:00:58;;;;;;;4.53;1.60;;;;;;;21.06;34.92;100353.13;2090429;28;20052;-58
2024/01/20 01:01:59;;;;;;;3.30;1.50;;;;;;;21.03;34.80;100348.34;2074376;28;20027;-58
2024/01/20 01:03:01;;;;;;;2.55;1.30;;;;;;;21.01;34.95;100351.44;2066006;28;20908;-57
2024/01/20 01:04:04;;;;;;;4.50;1.50;;;;;;;20.98;34.89;100346.66;2074494;28;20039;-58
2024/01/20 01:05:06;;;;;;;4.05;1.50;;;;;;;20.96;34.91;100346.22;2090432;28;20048;-58
2024/01/20 01:06:08;;;;;;;2.38;1.30;;;;;;;20.96;35.00;100353.63;2081859;28;20136;-58
2024/01/20 01:07:10;;;;;;;5.25;1.65;;;;;;;20.93;34.93;100354.34;2090885;28;20025;-58
2024/01/20 01:08:12;;;;;;;3.10;1.58;;;;;;;20.90;34.88;100350.38;2098490;28;20966;-58
2024/01/20 01:09:13;;;;;;;2.42;1.40;;;;;;;20.88;34.87;100347.22;2090150;28;20040;-58
2024/01/20 01:10:16;;;;;;;2.88;1.40;;;;;;;20.85;34.99;100353.38;2090607;28;20868;-58
2024/01/20 01:11:18;;;;;;;3.67;1.50;;;;;;;20.85;34.95;100349.84;2090503;28;20029;-58
2024/01/20 01:12:20;;;;;;;2.33;1.23;;;;;;;20.82;34.98;100349.41;2073780;28;20030;-58
2024/01/20 01:13:22;;;;;;;1.67;1.10;;;;;;;20.81;34.96;100341.56;2074155;28;20037;-58
2024/01/20 01:14:23;;;;;;;2.63;1.20;;;;;;;20.78;35.01;100345.81;2082377;28;20983;-58
2024/01/20 01:15:28;;;;;;;3.03;1.40;;;;;;;20.77;35.07;100344.19;2098859;28;20132;-58
2024/01/20 01:16:29;;;;;;;2.13;1.10;;;;;;;20.75;35.03;100340.25;2099102;28;20776;-59
2024/01/20 01:17:32;;;;;;;2.22;1.00;;;;;;;20.74;35.11;100344.09;2099411;28;20144;-58
2024/01/20 01:18:34;;;;;;;2.25;1.20;;;;;;;20.72;34.89;100338.22;2107090;28;20021;-58
2024/01/20 01:19:36;;;;;;;1.33;0.90;;;;;;;20.71;34.97;100342.91;2090564;28;20148;-58
2024/01/20 01:20:37;;;;;;;1.50;1.00;;;;;;;20.69;35.00;100330.72;2082426;28;20105;-58
2024/01/20 01:21:39;;;;;;;2.15;0.98;;;;;;;20.67;35.03;100333.81;2082103;28;20843;-58
2024/01/20 01:22:41;;;;;;;2.03;1.00;;;;;;;20.67;35.04;100335.75;2082228;28;20026;-58
2024/01/20 01:23:43;;;;;;;2.63;1.10;;;;;;;20.65;35.17;100333.38;2098752;28;21104;-58
2024/01/20 01:24:45;;;;;;;2.13;1.10;;;;;;;20.65;35.06;100340.75;2098318;28;20045;-58
2024/01/20 01:25:46;;;;;;;1.60;0.98;;;;;;;20.62;35.15;100336.00;2090299;28;20028;-58
2024/01/20 01:26:51;;;;;;;1.48;0.98;;;;;;;20.61;35.18;100343.41;2098214;28;20033;-58
2024/01/20 01:27:52;;;;;;;0.95;0.70;;;;;;;20.59;35.27;100338.31;2090056;28;20029;-58
2024/01/20 01:28:54;;;;;;;2.00;1.00;;;;;;;20.57;35.02;100335.13;2090064;28;20068;-58
2024/01/20 01:29:56;;;;;;;2.30;1.30;;;;;;;20.56;34.99;100336.28;2106790;28;20139;-58
2024/01/20 01:30:57;;;;;;;2.05;1.17;;;;;;;20.55;35.19;100331.16;2106605;28;20786;-58
2024/01/20 01:31:59;;;;;;;1.70;0.95;;;;;;;20.54;35.25;100332.31;2082032;28;20092;-58
2024/01/20 01:33:01;;;;;;;1.42;0.90;;;;;;;20.52;35.17;100327.19;2073455;28;20795;-59
2024/01/20 01:34:06;;;;;;;1.83;0.90;;;;;;;20.51;35.20;100331.06;2082623;28;20733;-58
2024/01/20 01:35:08;;;;;;;2.80;1.02;;;;;;;20.50;35.05;100326.72;2090007;28;20033;-58
2024/01/20 01:36:10;;;;;;;1.77;0.95;;;;;;;20.49;35.19;100330.59;2090321;28;20045;-58
2024/01/20 01:37:12;;;;;;;1.45;0.90;;;;;;;20.48;35.22;100323.53;2089892;28;20037;-58
2024/01/20 01:38:14;;;;;;;2.55;1.10;;;;;;;20.46;35.27;100325.84;2074014;28;20106;-58
2024/01/20 01:39:17;;;;;;;1.15;0.73;;;;;;;20.46;35.40;100331.31;2073794;28;20161;-58
2024/01/20 01:40:21;;;;;;;3.13;0.90;;;;;;;20.44;35.22;100319.13;2082705;28;20038;-58
2024/01/20 01:41:23;;;;;;;1.95;0.95;;;;;;;20.43;35.21;100329.28;2089768;28;21464;-58
2024/01/20 01:42:26;;;;;;;2.53;0.93;;;;;;;20.42;35.30;100319.47;2090626;28;20734;-58
2024/01/20 01:43:27;;;;;;;1.33;0.80;;;;;;;20.41;35.17;100320.63;2081654;28;20152;-58
2024/01/20 01:44:29;;;;;;;2.10;0.85;;;;;;;20.39;35.24;100314.72;2073688;28;20034;-59
2024/01/20 01:45:31;;;;;;;1.20;0.90;;;;;;;20.38;35.29;100311.19;2081722;28;20034;-58
2024/01/20 01:46:32;;;;;;;2.88;0.93;;;;;;;20.37;35.39;100312.34;2081794;28;20034;-58
2024/01/20 01:47:34;;;;;;;2.33;0.88;;;;;;;20.35;35.26;100309.16;2073550;28;20054;-58
2024/01/20 01:48:35;;;;;;;2.13;0.95;;;;;;;20.35;35.31;100319.28;2073560;28;20033;-57
2024/01/20 01:49:37;;;;;;;2.10;0.80;;;;;;;20.33;35.26;100303.28;2065448;28;20038;-58
2024/01/20 01:50:38;;;;;;;1.38;0.90;;;;;;;20.32;35.31;100304.41;2082282;28;20066;-57
2024/01/20 01:51:40;;;;;;;1.23;0.73;;;;;;;20.32;35.37;100303.63;2073428;28;20029;-57
2024/01/20 01:52:43;;;;;;;1.27;0.70;;;;;;;20.31;35.33;100302.03;2058103;28;20043;-57
2024/01/20 01:53:46;;;;;;;1.50;0.73;;;;;;;20.30;35.38;100301.25;2074102;28;20030;-57
2024/01/20 01:54:47;;;;;;;1.70;0.80;;;;;;;20.28;35.39;100303.53;2082396;28;20042;-58
2024/01/20 01:55:50;;;;;;;1.63;0.70;;;;;;;20.28;35.38;100308.19;2081705;28;20069;-58
2024/01/20 01:56:54;;;;;;;2.33;0.80;;;;;;;20.27;35.27;100312.06;2073768;28;20952;-58
2024/01/20 01:57:57;;;;;;;0.85;0.60;;;;;;;20.25;35.37;100314.34;2073027;28;20034;-58
2024/01/20 01:59:00;;;;;;;0.73;0.65;;;;;;;20.24;35.42;100307.28;2066774;28;20033;-57
2024/01/20 02:00:04;;;;;;;1.70;0.88;;;;;;;20.23;35.45;100311.97;2089491;28;20036;-58
2024/01/20 02:01:07;;;;;;;1.25;0.82;;;;;;;20.23;35.28;100313.91;2090540;28;20740;-58
2024/01/20 02:02:09;;;;;;;1.15;0.70;;;;;;;20.22;35.38;100304.13;2089885;28;20037;-58
2024/01/20 02:03:11;;;;;;;1.85;0.73;;;;;;;20.18;35.34;100303.25;2081834;28;20034;-58
2024/01/20 02:04:13;;;;;;;1.33;0.70;;;;;;;20.21;35.35;100307.97;2081787;28;20034;-58
2024/01/20 02:05:16;;;;;;;0.77;0.65;;;;;;;20.19;35.36;100311.06;2090106;28;20032;-58
2024/01/20 02:06:17;;;;;;;1.38;1.00;;;;;;;20.18;35.46;100308.72;2081353;28;20081;-58
2024/01/20 02:07:20;;;;;;;1.02;0.65;;;;;;;20.17;35.54;100304.38;2073579;28;20149;-58
2024/01/20 02:08:23;;;;;;;2.78;1.00;;;;;;;20.15;35.29;100302.00;2073384;28;20058;-58
2024/01/20 02:09:25;;;;;;;1.33;0.90;;;;;;;20.14;35.50;100303.94;2073980;28;20141;-58
2024/01/20 02:10:29;;;;;;;1.27;0.60;;;;;;;20.14;35.35;100301.22;2089735;28;20025;-57
2024/01/20 02:11:31;;;;;;;0.90;0.60;;;;;;;20.12;35.42;100298.03;2090118;28;20040;-57
2024/01/20 02:12:34;;;;;;;0.80;0.60;;;;;;;20.12;35.29;100300.75;2081796;28;20041;-58
2024/01/20 02:13:36;;;;;;;0.73;0.60;;;;;;;20.11;35.39;100293.72;2081859;28;20037;-58
2024/01/20 02:14:38;;;;;;;0.90;0.65;;;;;;;20.10;35.42;100292.13;2089722;28;20025;-57
2024/01/20 02:15:43;;;;;;;2.55;0.77;;;;;;;20.10;35.36;100297.59;2081451;28;20769;-58
2024/01/20 02:16:45;;;;;;;1.02;0.70;;;;;;;20.07;35.34;100292.81;2057532;28;20027;-57
2024/01/20 02:17:53;;;;;;;1.33;0.70;;;;;;;20.08;35.44;100294.44;2073728;28;20113;-58
2024/01/20 02:19:02;;;;;;;1.08;0.73;;;;;;;20.07;35.42;100295.53;2081593;28;20038;-58
2024/01/20 02:20:07;;;;;;;2.58;0.60;;;;;;;20.06;35.42;100293.97;2075890;28;20035;-58
2024/01/20 02:21:08;;;;;;;0.70;0.60;;;;;;;20.06;35.45;100299.44;2081595;28;20153;-58
2024/01/20 02:22:11;;;;;;;0.80;0.55;;;;;;;20.04;35.50;100288.06;2089697;28;20718;-58
2024/01/20 02:23:13;;;;;;;0.70;0.60;;;;;;;20.04;35.50;100284.53;2081336;28;20038;-58
2024/01/20 02:24:15;;;;;;;1.88;0.73;;;;;;;20.04;35.55;100292.72;2081898;28;20077;-58
2024/01/20 02:25:16;;;;;;;1.83;0.65;;;;;;;20.04;35.41;100298.19;2073303;28;20026;-58
2024/01/20 02:26:19;;;;;;;1.40;0.70;;;;;;;20.03;35.53;100285.69;2074029;28;20900;-58
2024/01/20 02:27:20;;;;;;;1.35;0.77;;;;;;;20.03;35.41;100288.41;2065353;28;20039;-58
2024/01/20 02:28:22;;;;;;;0.65;0.60;;;;;;;20.02;35.56;100293.09;2065472;28;20042;-58
2024/01/20 02:29:24;;;;;;;1.02;0.63;;;;;;;19.99;35.47;100293.78;2065490;28;20033;-58
2024/01/20 02:30:26;;;;;;;0.50;0.47;;;;;;;19.99;35.51;100293.78;2081765;28;20014;-58
2024/01/20 02:31:28;;;;;;;1.00;0.50;;;;;;;19.99;35.53;100285.59;2081390;28;20032;-59
2024/01/20 02:32:30;;;;;;;1.95;0.77;;;;;;;19.99;35.47;100291.06;2090036;28;20773;-58
2024/01/20 02:33:32;;;;;;;0.60;0.50;;;;;;;19.98;35.53;100289.44;2098020;28;20044;-59
2024/01/20 02:34:34;;;;;;;0.60;0.40;;;;;;;19.97;35.62;100298.78;2098138;28;20884;-58
2024/01/20 02:35:36;;;;;;;0.80;0.50;;;;;;;19.97;35.63;100285.16;2098168;28;20066;-59
2024/01/20 02:36:40;;;;;;;0.57;0.50;;;;;;;19.97;35.54;100287.09;2090136;28;20041;-58
2024/01/20 02:37:42;;;;;;;0.50;0.40;;;;;;;19.96;35.66;100282.78;2090134;28;20038;-59
2024/01/20 02:38:44;;;;;;;0.82;0.60;;;;;;;19.97;35.54;100285.16;2073469;28;20061;-58
2024/01/20 02:39:46;;;;;;;0.80;0.50;;;;;;;19.96;35.52;100283.56;2082039;28;20026;-59
2024/01/20 02:40:50;;;;;;;0.93;0.50;;;;;;;19.96;35.53;100285.50;2106208;28;20942;-59
2024/01/20 02:41:52;;;;;;;2.03;0.95;;;;;;;19.94;35.58;100280.38;2089156;28;20041;-59
2024/01/20 02:42:54;;;;;;;0.75;0.40;;;;;;;19.94;35.64;100280.38;2074057;28;20046;-59
2024/01/20 02:43:56;;;;;;;0.52;0.50;;;;;;;19.94;35.54;100277.66;2082006;28;20742;-59
2024/01/20 02:44:58;;;;;;;0.88;0.60;;;;;;;19.93;35.67;100270.63;2073509;28;20022;-59
2024/01/20 02:46:00;;;;;;;1.02;0.60;;;;;;;19.93;35.50;100264.38;2081841;28;20138;-59
2024/01/20 02:47:02;;;;;;;0.52;0.52;;;;;;;19.91;35.56;100267.44;2098189;28;20779;-59
2024/01/20 02:48:05;;;;;;;0.70;0.47;;;;;;;19.91;35.60;100278.34;2106110;28;20023;-58
2024/01/20 02:49:08;;;;;;;1.00;0.57;;;;;;;19.89;35.51;100264.25;2098428;28;20037;-58
2024/01/20 02:50:10;;;;;;;0.88;0.50;;;;;;;19.90;35.47;100271.31;2098099;28;20025;-58
2024/01/20 02:51:12;;;;;;;0.68;0.40;;;;;;;19.89;35.49;100266.97;2081476;28;20140;-58
2024/01/20 02:52:16;;;;;;;1.00;0.50;;;;;;;19.88;35.54;100268.91;2073158;28;20047;-58
2024/01/20 02:53:18;;;;;;;0.55;0.50;;;;;;;19.87;35.60;100261.09;2082279;28;20975;-59
2024/01/20 02:54:20;;;;;;;0.63;0.50;;;;;;;19.86;35.46;100259.50;2081560;28;20853;-59
2024/01/20 02:55:21;;;;;;;0.88;0.47;;;;;;;19.85;35.52;100258.69;2073543;28;20108;-58
2024/01/20 02:56:24;;;;;;;0.82;0.50;;;;;;;19.86;35.50;100259.50;2089683;28;20044;-59
2024/01/20 02:57:26;;;;;;;0.85;0.50;;;;;;;19.85;35.59;100253.25;2098655;28;21264;-59
2024/01/20 02:58:27;;;;;;;1.15;0.68;;;;;;;19.84;35.61;100253.59;2106313;28;20024;-58
2024/01/20 02:59:29;;;;;;;0.57;0.50;;;;;;;19.84;35.58;100261.78;2089659;28;20772;-59
2024/01/20 03:00:31;;;;;;;1.10;0.60;;;;;;;19.83;35.70;100250.09;2073375;28;20891;-58
2024/01/20 03:01:36;;;;;;;0.95;0.70;;;;;;;19.82;35.71;100253.94;2090351;28;20046;-59
2024/01/20 03:02:38;;;;;;;0.40;0.40;;;;;;;19.82;35.69;100255.88;2098020;28;20033;-59
2024/01/20 03:03:40;;;;;;;0.95;0.60;;;;;;;19.81;35.62;100246.91;2081837;28;20030;-58
2024/01/20 03:04:42;;;;;;;1.00;0.60;;;;;;;19.81;35.67;100249.63;2073497;28;20070;-59
2024/01/20 03:05:43;;;;;;;4.70;0.70;;;;;;;19.80;35.65;100247.28;2073556;28;20033;-58
2024/01/20 03:06:45;;;;;;;0.90;0.70;;;;;;;19.80;35.72;100244.53;2073388;28;20038;-59
2024/01/20 03:07:49;;;;;;;0.52;0.40;;;;;;;19.78;35.65;100247.59;2081860;28;20898;-59
2024/01/20 03:08:52;;;;;;;1.13;0.40;;;;;;;19.78;35.88;100236.69;2097371;28;20025;-59
2024/01/20 03:09:54;;;;;;;1.67;0.52;;;;;;;19.78;35.83;100238.63;2098095;28;20080;-59
2024/01/20 03:10:56;;;;;;;1.30;0.52;;;;;;;19.77;35.76;100239.78;2081397;28;20077;-59
2024/01/20 03:11:58;;;;;;;0.80;0.50;;;;;;;19.76;35.92;100238.19;2081819;28;20021;-59
2024/01/20 03:13:00;;;;;;;0.50;0.50;;;;;;;19.76;35.84;100233.50;2081092;28;20951;-59
2024/01/20 03:14:03;;;;;;;1.40;0.60;;;;;;;19.76;35.90;100238.19;2089962;28;20013;-59
2024/01/20 03:15:08;;;;;;;0.93;0.60;;;;;;;19.76;35.80;100227.25;2089365;28;20757;-59
2024/01/20 03:16:10;;;;;;;1.55;0.70;;;;;;;19.74;35.85;100229.56;2082367;28;20140;-59
2024/01/20 03:17:15;;;;;;;0.68;0.50;;;;;;;19.75;35.82;100228.41;2089353;28;20037;-58
2024/01/20 03:18:18;;;;;;;0.63;0.60;;;;;;;19.73;35.93;100233.41;2081976;28;20033;-59
2024/01/20 03:19:20;;;;;;;0.85;0.60;;;;;;;19.73;35.92;100228.75;2081394;28;20046;-58
2024/01/20 03:20:21;;;;;;;1.38;0.88;;;;;;;19.72;35.91;100232.63;2081454;28;20080;-59
2024/01/20 03:21:23;;;;;;;1.15;0.57;;;;;;;19.72;35.95;100220.94;2081647;28;20133;-58
2024/01/20 03:22:25;;;;;;;0.55;0.40;;;;;;;19.67;35.88;100214.59;2089780;28;20099;-59
2024/01/20 03:23:27;;;;;;;0.73;0.50;;;;;;;19.71;35.93;100219.34;2089464;28;20828;-59
2024/01/20 03:24:29;;;;;;;2.50;0.60;;;;;;;19.69;35.87;100225.13;2089827;28;20506;-58
2024/01/20 03:25:32;;;;;;;0.85;0.50;;;;;;;19.69;36.00;100222.41;2097604;28;20144;-58
2024/01/20 03:26:33;;;;;;;0.80;0.50;;;;;;;19.68;36.01;100215.38;2106433;28;20139;-59
2024/01/20 03:27:35;;;;;;;2.95;0.47;;;;;;;19.68;35.98;100218.09;2089348;28;20120;-59
2024/01/20 03:28:40;;;;;;;0.95;0.50;;;;;;;19.68;35.98;100216.16;2073302;28;20034;-58
2024/01/20 03:29:42;;;;;;;0.50;0.47;;;;;;;19.67;35.97;100214.59;2074207;28;20030;-58
2024/01/20 03:30:45;;;;;;;0.55;0.52;;;;;;;19.66;35.93;100212.97;2081549;28;20080;-58
2024/01/20 03:31:51;;;;;;;0.50;0.40;;;;;;;19.66;35.95;100212.19;2085470;28;20022;-58
2024/01/20 03:32:53;;;;;;;3.30;0.50;;;;;;;19.66;35.99;100202.06;2097882;28;20029;-58
2024/01/20 03:33:57;;;;;;;0.95;0.47;;;;;;;19.64;36.00;100198.91;2089889;28;20127;-58
2024/01/20 03:35:01;;;;;;;0.80;0.50;;;;;;;19.64;36.03;100204.38;2090086;28;20804;-59
2024/01/20 03:36:03;;;;;;;0.85;0.50;;;;;;;19.64;36.07;100198.09;2097504;28;20041;-58
2024/01/20 03:37:05;;;;;;;0.65;0.57;;;;;;;19.63;35.93;100197.28;2098123;28;20063;-59
2024/01/20 03:38:09;;;;;;;0.50;0.40;;;;;;;19.62;35.99;100195.72;2105969;28;20021;-58
2024/01/20 03:39:11;;;;;;;0.43;0.43;;;;;;;19.62;36.09;100195.72;2105852;28;20984;-59
2024/01/20 03:40:14;;;;;;;0.77;0.40;;;;;;;19.62;36.10;100195.72;2097610;28;20172;-59
2024/01/20 03:41:16;;;;;;;1.25;0.60;;;;;;;19.62;35.98;100194.91;2089861;28;20026;-58
2024/01/20 03:42:18;;;;;;;0.70;0.40;;;;;;;19.62;36.15;100200.38;2089482;28;20037;-58
2024/01/20 03:43:20;;;;;;;2.00;0.70;;;;;;;19.61;36.10;100196.84;2090045;28;20037;-58
2024/01/20 03:44:21;;;;;;;0.40;0.30;;;;;;;19.60;36.16;100192.53;2089398;28;20144;-59
2024/01/20 03:45:24;;;;;;;0.80;0.35;;;;;;;19.60;35.98;100189.00;2081635;28;20036;-58
2024/01/20 03:46:26;;;;;;;0.70;0.40;;;;;;;19.59;36.10;100201.06;2089322;28;20864;-58
2024/01/20 03:47:29;;;;;;;0.93;0.40;;;;;;;19.58;36.16;100183.91;2098043;28;20025;-59
2024/01/20 03:48:32;;;;;;;0.63;0.40;;;;;;;19.59;36.16;100187.44;2097647;28;20973;-59
2024/01/20 03:49:34;;;;;;;0.73;0.40;;;;;;;19.59;36.16;100195.63;2098594;28;20021;-59
2024/01/20 03:50:36;;;;;;;2.33;0.52;;;;;;;19.58;36.20;100205.72;2089241;28;20026;-59
2024/01/20 03:51:38;;;;;;;0.90;0.40;;;;;;;19.59;36.24;100179.25;2081601;28;20157;-59
2024/01/20 03:52:39;;;;;;;0.73;0.50;;;;;;;19.58;36.29;100183.13;2081339;28;20022;-59
2024/01/20 03:53:41;;;;;;;2.42;0.50;;;;;;;19.58;36.27;100192.09;2081323;28;20034;-58
2024/01/20 03:54:43;;;;;;;0.70;0.40;;;;;;;19.58;36.24;100180.41;2082822;28;20789;-59
2024/01/20 03:55:48;;;;;;;0.40;0.40;;;;;;;19.56;36.24;100175.28;2098858;28;20068;-58
2024/01/20 03:56:49;;;;;;;1.20;0.50;;;;;;;19.58;36.18;100175.75;2090937;28;20025;-58
2024/01/20 03:57:55;;;;;;;0.93;0.32;;;;;;;19.56;36.09;100180.75;2091139;28;20136;-59
2024/01/20 03:58:58;;;;;;;0.50;0.47;;;;;;;19.56;36.19;100179.94;2090624;28;20053;-58
2024/01/20 04:00:00;;;;;;;1.95;0.30;;;;;;;19.54;36.05;100180.28;2091442;28;20741;-58
2024/01/20 04:01:01;;;;;;;0.77;0.40;;;;;;;19.55;36.17;100176.44;2082553;28;20141;-58
2024/01/20 04:02:04;;;;;;;0.70;0.35;;;;;;;19.54;36.05;100179.50;2066552;28;20035;-58
2024/01/20 04:03:06;;;;;;;0.60;0.40;;;;;;;19.53;36.14;100175.19;2083386;28;20026;-58
2024/01/20 04:04:08;;;;;;;1.00;0.50;;;;;;;19.52;36.10;100171.69;2082806;28;20924;-58
2024/01/20 04:05:10;;;;;;;0.73;0.45;;;;;;;19.52;35.91;100163.50;2083217;28;20033;-58
2024/01/20 04:06:12;;;;;;;1.02;0.50;;;;;;;19.52;35.95;100173.63;2090767;28;20026;-58
2024/01/20 04:07:14;;;;;;;1.00;0.50;;;;;;;19.52;36.02;100162.72;2091101;28;20143;-59
2024/01/20 04:08:16;;;;;;;1.67;0.93;;;;;;;19.50;36.04;100162.25;2099254;28;20132;-58
2024/01/20 04:09:19;;;;;;;2.50;0.60;;;;;;;19.50;36.00;100160.31;2098810;28;20045;-59
2024/01/20 04:10:21;;;;;;;0.98;0.50;;;;;;;19.50;35.96;100164.97;2091242;28;20230;-59
2024/01/20 04:11:23;;;;;;;1.02;0.60;;;;;;;19.49;36.04;100157.94;2074636;28;20030;-58
2024/01/20 04:12:28;;;;;;;0.57;0.50;;;;;;;19.49;36.00;100160.69;2083488;28;20025;-58
2024/01/20 04:13:30;;;;;;;1.65;0.60;;;;;;;19.49;35.88;100166.13;2090724;28;20827;-58
2024/01/20 04:14:32;;;;;;;1.52;0.60;;;;;;;19.47;35.83;100161.00;2082703;28;20863;-57
2024/01/20 04:15:33;;;;;;;1.35;0.50;;;;;;;19.46;35.89;100159.44;2082384;28;20033;-58
2024/01/20 04:16:36;;;;;;;2.10;0.50;;;;;;;19.46;35.86;100159.44;2097824;28;20060;-58
2024/01/20 04:17:42;;;;;;;1.08;0.50;;;;;;;19.47;35.93;100162.94;2097282;28;20157;-57
2024/01/20 04:18:44;;;;;;;0.90;0.50;;;;;;;19.48;36.04;100153.63;2089942;28;20145;-58
2024/01/20 04:19:45;;;;;;;0.90;0.40;;;;;;;19.50;36.04;100162.25;2097770;28;20021;-58
2024/01/20 04:20:47;;;;;;;1.52;0.43;;;;;;;19.49;36.14;100153.28;2089246;28;20042;-58
2024/01/20 04:21:49;;;;;;;0.90;0.40;;;;;;;19.53;35.94;100159.63;2081012;28;20158;-58
2024/01/20 04:22:51;;;;;;;0.65;0.43;;;;;;;19.57;36.25;100155.03;2072553;28;20038;-57
2024/01/20 04:23:52;;;;;;;0.77;0.30;;;;;;;19.60;36.55;100153.56;2081250;28;20034;-58
2024/01/20 04:24:54;;;;;;;1.33;0.50;;;;;;;19.64;36.33;100154.47;2081442;28;20060;-58
2024/01/20 04:25:57;;;;;;;0.75;0.40;;;;;;;19.67;36.39;100148.31;2081346;28;20026;-58
2024/01/20 04:26:59;;;;;;;1.42;0.40;;;;;;;19.72;36.44;100158.19;2081518;28;20042;-58
2024/01/20 04:28:01;;;;;;;0.70;0.50;;;;;;;19.74;36.48;100164.09;2097840;28;20021;-57
2024/01/20 04:29:03;;;;;;;2.13;0.68;;;;;;;19.78;36.60;100143.16;2089368;28;20049;-57
2024/01/20 04:30:07;;;;;;;0.70;0.40;;;;;;;19.80;36.53;100149.84;2072860;28;20038;-57
2024/01/20 04:31:09;;;;;;;1.95;0.50;;;;;;;19.85;36.53;100144.13;2090153;28;20030;-58
2024/01/20 04:32:11;;;;;;;1.30;0.57;;;;;;;19.89;36.68;100149.66;2091723;28;20561;-58
2024/01/20 04:33:13;;;;;;;1.77;0.50;;;;;;;19.93;36.65;100153.28;2089334;28;20032;-57
2024/01/20 04:34:15;;;;;;;0.90;0.50;;;;;;;19.96;36.72;100138.94;2097493;28;20060;-58
2024/01/20 04:35:17;;;;;;;1.15;0.40;;;;;;;20.00;36.57;100142.53;2089025;28;20040;-58
2024/01/20 04:36:19;;;;;;;0.93;0.40;;;;;;;20.03;36.82;100141.06;2072689;28;20149;-58
2024/01/20 04:37:20;;;;;;;0.52;0.40;;;;;;;20.06;36.83;100137.63;2082044;28;20741;-58
2024/01/20 04:38:22;;;;;;;1.00;0.40;;;;;;;20.08;36.71;100135.31;2090016;28;20072;-58
2024/01/20 04:39:23;;;;;;;0.77;0.40;;;;;;;20.12;36.88;100142.47;2089726;28;20119;-57
2024/01/20 04:40:26;;;;;;;1.35;0.40;;;;;;;20.14;36.88;100148.38;2098775;28;20044;-58
2024/01/20 04:41:29;;;;;;;1.02;0.50;;;;;;;20.19;36.84;100124.69;2089952;28;20029;-59
2024/01/20 04:42:34;;;;;;;1.27;0.60;;;;;;;20.21;36.82;100136.00;2083488;28;20093;-58
2024/01/20 04:43:36;;;;;;;1.80;0.47;;;;;;;20.25;37.00;100147.81;2082578;28;21083;-58
2024/01/20 04:44:37;;;;;;;1.15;0.40;;;;;;;20.27;37.02;100138.16;2090464;28;21005;-58
2024/01/20 04:45:40;;;;;;;0.57;0.35;;;;;;;20.30;36.90;100142.06;2098820;28;20048;-58
2024/01/20 04:46:42;;;;;;;0.63;0.40;;;;;;;20.33;36.94;100130.44;2090952;28;20038;-57
2024/01/20 04:47:44;;;;;;;1.38;0.40;;;;;;;20.36;37.02;100135.22;2090129;28;20040;-58
2024/01/20 04:48:45;;;;;;;1.10;0.50;;;;;;;20.38;37.03;100089.22;2074170;28;20035;-58
2024/01/20 04:49:51;;;;;;;1.38;0.70;;;;;;;20.40;37.05;100125.19;2074259;28;20043;-58